createdAt,value
2023-08-10T00:02:49.547Z,93.55
2023-08-10T00:07:51.799Z,94.81
2023-08-10T00:12:53.277Z,94.39
2023-08-10T00:17:54.853Z,95.74
2023-08-10T00:22:56.456Z,94.70
2023-08-10T00:27:58.108Z,92.16
2023-08-10T00:33:02.176Z,89.71
2023-08-10T00:38:03.892Z,89.61
2023-08-10T00:43:06.553Z,90.62
2023-08-10T00:48:09.733Z,90.33
2023-08-10T00:53:12.265Z,90.91
2023-08-10T00:58:14.074Z,89.01
2023-08-10T01:03:16.736Z,89.60
2023-08-10T01:08:32.664Z,89.05
2023-08-10T01:13:45.050Z,86.91
2023-08-10T01:18:48.469Z,87.59
2023-08-10T01:23:55.759Z,86.72
2023-08-10T01:28:57.900Z,84.29
2023-08-10T01:33:59.410Z,83.94
2023-08-10T01:39:01.203Z,84.93
2023-08-10T01:44:02.824Z,83.74
2023-08-10T01:49:11.901Z,82.84
2023-08-10T01:54:14.786Z,83.26
2023-08-10T01:59:16.368Z,84.36
2023-08-10T02:04:18.180Z,85.05
2023-08-10T02:09:19.782Z,83.83
2023-08-10T02:14:21.306Z,85.27
2023-08-10T02:19:23.852Z,83.38
2023-08-10T02:24:25.442Z,84.46
2023-08-10T02:29:27.017Z,85.58
2023-08-10T02:34:29.015Z,85.30
2023-08-10T02:39:30.497Z,86.27
2023-08-10T02:44:32.041Z,88.41
2023-08-10T02:49:33.516Z,89.35
2023-08-10T02:54:35.210Z,90.57
2023-08-10T02:59:36.781Z,91.40
2023-08-10T03:04:38.375Z,89.86
2023-08-10T03:09:42.535Z,90.60
2023-08-10T03:14:46.768Z,88.03
2023-08-10T03:19:49.115Z,87.99
2023-08-10T03:24:52.079Z,89.16
2023-08-10T03:29:54.682Z,87.86
2023-08-10T03:34:56.294Z,87.66
2023-08-10T03:39:57.929Z,87.82
2023-08-10T03:44:59.662Z,88.84
2023-08-10T03:50:01.207Z,89.87
2023-08-10T03:55:04.044Z,89.99
2023-08-10T04:00:06.361Z,90.63
2023-08-10T04:05:18.093Z,91.07
2023-08-10T04:10:21.052Z,91.09
2023-08-10T04:15:22.647Z,91.11
2023-08-10T04:20:24.177Z,89.95
2023-08-10T04:25:26.665Z,91.79
2023-08-10T04:30:30.664Z,91.90
2023-08-10T04:35:32.380Z,91.14
2023-08-10T04:40:34.079Z,92.53
2023-08-10T04:45:35.776Z,92.53
2023-08-10T04:50:37.428Z,93.58
2023-08-10T04:55:38.882Z,94.03
2023-08-10T05:00:40.362Z,95.95
2023-08-10T05:05:41.952Z,98.68
2023-08-10T05:10:46.690Z,97.36
2023-08-10T05:15:49.329Z,97.67
2023-08-10T05:20:50.933Z,95.28
2023-08-10T05:25:52.548Z,94.08
2023-08-10T05:30:54.544Z,94.13
2023-08-10T05:35:56.037Z,94.97
2023-08-10T05:40:57.612Z,93.42
2023-08-10T05:45:59.141Z,90.23
2023-08-10T05:51:00.721Z,88.91
2023-08-10T05:56:02.249Z,86.63
2023-08-10T06:01:04.566Z,85.82
2023-08-10T06:06:07.982Z,85.50
2023-08-10T06:11:09.591Z,83.92
2023-08-10T06:16:11.110Z,82.77
2023-08-10T06:21:14.428Z,81.41
2023-08-10T06:26:15.936Z,80.35
2023-08-10T06:31:17.607Z,81.48
2023-08-10T06:36:19.356Z,80.79
2023-08-10T06:41:22.477Z,77.21
2023-08-10T06:46:24.486Z,75.91
2023-08-10T06:51:26.119Z,76.07
2023-08-10T06:56:27.596Z,75.22
2023-08-10T07:01:29.117Z,72.60
2023-08-10T07:06:31.568Z,72.09
2023-08-10T07:11:33.084Z,71.90
2023-08-10T07:16:34.664Z,71.94
2023-08-10T07:21:36.236Z,74.84
2023-08-10T07:26:37.810Z,72.93
2023-08-10T07:31:39.288Z,72.60
2023-08-10T07:36:40.837Z,70.37
2023-08-10T07:41:42.330Z,71.22
2023-08-10T07:46:45.799Z,69.33
2023-08-10T07:51:48.421Z,67.07
2023-08-10T07:56:49.928Z,64.15
2023-08-10T08:01:51.560Z,66.07
2023-08-10T08:06:53.171Z,66.58
2023-08-10T08:11:54.675Z,64.06
2023-08-10T08:16:56.205Z,64.91
2023-08-10T08:21:57.767Z,62.21
2023-08-10T08:26:59.344Z,62.32
2023-08-10T08:32:00.907Z,61.81
2023-08-10T08:37:02.464Z,62.52
2023-08-10T08:42:04.449Z,61.24
2023-08-10T08:47:07.644Z,61.79
2023-08-10T08:52:09.178Z,60.97
2023-08-10T08:57:10.794Z,61.98
2023-08-10T09:02:17.826Z,61.73
2023-08-10T09:07:20.349Z,60.48
2023-08-10T09:12:29.341Z,60.35
2023-08-10T09:17:32.445Z,59.24
2023-08-10T09:22:36.216Z,58.83
2023-08-10T09:27:37.860Z,60.08
2023-08-10T09:32:40.797Z,59.97
2023-08-10T09:37:43.183Z,58.32
2023-08-10T09:42:44.928Z,57.82
2023-08-10T09:47:47.046Z,57.16
2023-08-10T09:52:50.482Z,57.57
2023-08-10T09:57:52.273Z,56.32
2023-08-10T10:02:54.240Z,57.62
2023-08-10T10:07:56.220Z,57.02
2023-08-10T10:12:58.462Z,56.81
2023-08-10T10:18:00.127Z,55.78
2023-08-10T10:23:02.228Z,57.39
2023-08-10T10:28:14.568Z,55.53
2023-08-10T10:33:17.836Z,56.86
2023-08-10T10:38:20.912Z,55.81
2023-08-10T10:43:22.416Z,57.06
2023-08-10T10:48:35.696Z,57.43
2023-08-10T10:53:39.121Z,57.41
2023-08-10T10:58:42.265Z,55.64
2023-08-10T11:03:51.999Z,56.01
2023-08-10T11:08:55.915Z,57.06
2023-08-10T11:13:57.504Z,55.23
2023-08-10T11:18:59.379Z,55.18
2023-08-10T11:24:00.897Z,55.76
2023-08-10T11:29:02.701Z,54.96
2023-08-10T11:34:21.892Z,55.47
2023-08-10T11:39:24.075Z,54.33
2023-08-10T11:44:30.774Z,54.67
2023-08-10T11:49:33.433Z,55.76
2023-08-10T11:54:38.418Z,55.02
2023-08-10T11:59:40.558Z,53.70
2023-08-10T12:04:42.279Z,55.46
2023-08-10T12:09:48.696Z,53.17
2023-08-10T12:14:54.395Z,54.06
2023-08-10T12:19:56.303Z,57.46
2023-08-10T12:24:57.780Z,57.94
2023-08-10T12:29:59.285Z,58.92
2023-08-10T12:35:00.904Z,57.22
2023-08-10T12:40:02.427Z,57.98
2023-08-10T12:45:04.448Z,58.31
2023-08-10T12:50:07.731Z,56.35
2023-08-10T12:55:10.180Z,56.20
2023-08-10T13:00:15.196Z,55.69
2023-08-10T13:05:17.141Z,54.48
2023-08-10T13:10:19.809Z,52.74
2023-08-10T13:15:21.355Z,52.78
2023-08-10T13:20:23.396Z,55.52
2023-08-10T13:25:24.984Z,53.47
2023-08-10T13:30:26.642Z,54.42
2023-08-10T13:35:28.160Z,52.29
2023-08-10T13:40:29.685Z,53.63
2023-08-10T13:45:32.378Z,52.25
2023-08-10T13:50:33.897Z,52.17
2023-08-10T13:55:35.643Z,50.18
2023-08-10T14:00:37.153Z,52.63
2023-08-10T14:05:39.072Z,50.53
2023-08-10T14:10:40.554Z,50.48
2023-08-10T14:15:42.144Z,50.35
2023-08-10T14:20:44.009Z,49.77
2023-08-10T14:25:45.539Z,50.36
2023-08-10T14:30:47.099Z,49.38
2023-08-10T14:35:48.609Z,48.92
2023-08-10T14:40:50.381Z,50.55
2023-08-10T14:45:51.856Z,48.81
2023-08-10T14:50:53.344Z,49.65
2023-08-10T14:55:55.169Z,50.36
2023-08-10T15:00:56.783Z,47.92
2023-08-10T15:06:07.288Z,48.75
2023-08-10T15:11:12.416Z,48.74
2023-08-10T15:16:15.783Z,49.36
2023-08-10T15:21:17.830Z,48.63
2023-08-10T15:26:19.352Z,51.35
2023-08-10T15:31:22.281Z,51.17
2023-08-10T15:36:23.791Z,49.30
2023-08-10T15:41:25.410Z,50.20
2023-08-10T15:46:27.025Z,50.43
2023-08-10T15:51:28.797Z,51.69
2023-08-10T15:56:30.632Z,50.19
2023-08-10T16:01:32.405Z,50.73
2023-08-10T16:06:34.559Z,51.44
2023-08-10T16:11:36.291Z,49.38
2023-08-10T16:16:37.799Z,52.23
2023-08-10T16:21:39.311Z,50.45
2023-08-10T16:26:41.279Z,50.58
2023-08-10T16:31:42.900Z,51.45
2023-08-10T16:36:44.493Z,51.39
2023-08-10T16:41:45.979Z,51.94
2023-08-10T16:46:47.593Z,52.30
2023-08-10T16:51:49.113Z,51.86
2023-08-10T16:56:50.685Z,50.78
2023-08-10T17:01:53.751Z,51.65
2023-08-10T17:06:56.621Z,52.43
2023-08-10T17:11:58.166Z,53.16
2023-08-10T17:17:01.673Z,54.01
2023-08-10T17:22:06.173Z,52.92
2023-08-10T17:27:08.025Z,52.93
2023-08-10T17:32:09.682Z,54.62
2023-08-10T17:37:11.368Z,55.50
2023-08-10T17:42:12.945Z,57.12
2023-08-10T17:47:14.492Z,55.88
2023-08-10T17:52:16.262Z,56.63
2023-08-10T17:57:17.792Z,57.24
2023-08-10T18:02:19.371Z,58.40
2023-08-10T18:07:20.908Z,61.29
2023-08-10T18:12:22.418Z,62.08
2023-08-10T18:17:24.293Z,63.08
2023-08-10T18:22:25.796Z,62.32
2023-08-10T18:27:27.324Z,64.08
2023-08-10T18:32:28.958Z,63.55
2023-08-10T18:37:30.586Z,64.77
2023-08-10T18:42:32.176Z,67.00
2023-08-10T18:47:35.687Z,67.98
2023-08-10T18:52:37.178Z,68.81
2023-08-10T18:57:39.622Z,69.20
2023-08-10T19:02:44.499Z,69.28
2023-08-10T19:07:47.324Z,69.81
2023-08-10T19:12:48.812Z,72.08
2023-08-10T19:17:50.339Z,72.57
2023-08-10T19:22:51.974Z,74.42
2023-08-10T19:27:53.821Z,74.86
2023-08-10T19:32:55.416Z,74.51
2023-08-10T19:37:57.028Z,75.17
2023-08-10T19:42:58.588Z,75.43
2023-08-10T19:48:01.187Z,76.65
2023-08-10T19:53:05.053Z,78.15
2023-08-10T19:58:06.595Z,79.08
2023-08-10T20:03:08.220Z,82.07
2023-08-10T20:08:09.851Z,82.28
2023-08-10T20:13:11.771Z,83.35
2023-08-10T20:18:13.257Z,83.65
2023-08-10T20:23:14.745Z,84.48
2023-08-10T20:28:16.347Z,86.06
2023-08-10T20:33:18.534Z,86.26
2023-08-10T20:38:20.118Z,87.83
2023-08-10T20:43:21.598Z,88.92
2023-08-10T20:48:23.148Z,88.93
2023-08-10T20:53:27.078Z,90.46
2023-08-10T20:58:28.573Z,89.39
2023-08-10T21:03:31.258Z,89.83
2023-08-10T21:08:33.859Z,89.86
2023-08-10T21:13:35.636Z,90.58
2023-08-10T21:18:37.187Z,90.17
2023-08-10T21:23:38.653Z,90.80
2023-08-10T21:28:40.212Z,89.56
2023-08-10T21:33:41.857Z,90.61
2023-08-10T21:38:43.307Z,92.08
2023-08-10T21:43:44.812Z,92.33
2023-08-10T21:48:46.313Z,92.56
2023-08-10T21:53:47.868Z,93.12
2023-08-10T21:58:49.360Z,94.14
2023-08-10T22:03:51.222Z,94.32
2023-08-10T22:08:52.713Z,94.62
2023-08-10T22:13:57.933Z,95.01
2023-08-10T22:18:59.808Z,96.42
2023-08-10T22:24:01.298Z,98.04
2023-08-10T22:29:03.317Z,97.41
2023-08-10T22:34:05.155Z,97.81
2023-08-10T22:39:06.620Z,96.88
2023-08-10T22:44:08.547Z,96.73
2023-08-10T22:49:11.028Z,97.51
2023-08-10T22:54:12.598Z,97.57
2023-08-10T22:59:14.945Z,97.91
2023-08-10T23:04:16.476Z,97.68
2023-08-10T23:09:18.468Z,98.59
2023-08-10T23:14:20.019Z,98.65
2023-08-10T23:19:23.371Z,97.31
2023-08-10T23:24:27.821Z,97.48
2023-08-10T23:29:29.299Z,96.50
2023-08-10T23:34:31.632Z,96.12
2023-08-10T23:39:33.200Z,96.07
2023-08-10T23:44:35.773Z,96.74
2023-08-10T23:49:37.338Z,96.48
2023-08-10T23:54:39.070Z,95.80
2023-08-10T23:59:41.565Z,96.73
